Terminal Aerodrome Forecast
Issued by NWS

Home | Current Version | Previous Version | Text Only | Print | Product List | Glossary On
Versions: 1 2 3 4 5 6 7 8 9 10 11 12 13 14 15 16 17 18 19
000
FTUS45 KSLC 132321
TAFPVU
TAF
KPVU 132321Z 1400/1424 32006KT 3SM BR SCT005 BKN090
     FM140800 VRB03KT 2SM BR PRFG OVC004
     FM141800 VRB04KT 5SM BR SCT004=

USA.gov is the U.S. government's official web portal to all federal, state and local government web resources and services.